African Loon — 3EFF9 — position and weather

sailwx.info

Track history (hours):
 
Tides and Currents Weather Stations Pressure Air Temp Water Temp Dewpoint Dewpoint Depression Visibility Wind Speed Wind Dir Waves Ship Positions

African Loon

Last reported at 2017-Jun-26 13:28 UTC. Time now 2017-Jun-26 14:02 UTC.
Position S 33°55' E 018°26'.

Length 200 m; draft 8.9 m.

Type: Cargo ship. MMSI: 374319000.

Date/timePositionNaut miles runAvg speedWind from/ knotsBaromVisibWave heightAir tempDewpointWater temp
2017-Jun-26 13:28S 33°55' E 018°26'0 0.0
2017-Jun-26 12:55S 33°55' E 018°26'0 0.0
2017-Jun-26 12:25S 33°55' E 018°26'0 0.0
2017-Jun-26 11:58S 33°55' E 018°26'0 0.0
2017-Jun-26 11:25S 33°55' E 018°26'0 0.0
2017-Jun-26 10:58S 33°55' E 018°26'0 0.0
2017-Jun-26 10:28S 33°55' E 018°26'0 0.0
2017-Jun-26 09:58S 33°55' E 018°26'0 0.0
2017-Jun-26 09:25S 33°55' E 018°26'0 0.0
2017-Jun-26 08:58S 33°55' E 018°26'0 0.0
2017-Jun-26 08:28S 33°55' E 018°26'0 0.0
2017-Jun-26 07:58S 33°55' E 018°26'0 0.0
2017-Jun-26 07:25S 33°55' E 018°26'0 0.0
2017-Jun-26 06:58S 33°55' E 018°26'0 0.0
2017-Jun-26 06:28S 33°55' E 018°26'0 0.0
2017-Jun-26 05:58S 33°55' E 018°26'0 0.0
2017-Jun-26 05:28S 33°55' E 018°26'0 0.0
2017-Jun-26 04:58S 33°55' E 018°26'0 0.0
2017-Jun-26 04:25S 33°55' E 018°26'0 0.0
2017-Jun-26 03:58S 33°55' E 018°26'0 0.0
2017-Jun-26 03:28S 33°55' E 018°26'0 0.0
2017-Jun-26 02:58S 33°55' E 018°26'0 0.0
2017-Jun-26 02:28S 33°55' E 018°26'0 0.0
2017-Jun-26 01:58S 33°55' E 018°26'0 0.0
2017-Jun-26 01:28S 33°55' E 018°26'0 0.0
2017-Jun-26 00:58S 33°55' E 018°26'0 0.0
2017-Jun-26 00:28S 33°55' E 018°26'0 0.0
2017-Jun-25 23:58S 33°55' E 018°26'0 0.0
2017-Jun-25 23:25S 33°55' E 018°26'0 0.0
2017-Jun-25 22:58S 33°55' E 018°26'0 0.0
2017-Jun-25 22:25S 33°55' E 018°26'0 0.0
2017-Jun-25 21:58S 33°55' E 018°26'0 0.0
2017-Jun-25 21:28S 33°55' E 018°26'0 0.0
2017-Jun-25 20:58S 33°55' E 018°26'0 0.0
2017-Jun-25 20:28S 33°55' E 018°26'0 0.0
2017-Jun-25 19:58S 33°55' E 018°26'0 0.0
2017-Jun-25 19:31S 33°55' E 018°26'0 0.0
2017-Jun-25 18:58S 33°55' E 018°26'0 0.0
2017-Jun-25 18:28S 33°55' E 018°26'0 0.0
2017-Jun-25 17:58S 33°55' E 018°26'0 0.0
2017-Jun-25 17:28S 33°55' E 018°26'0 0.0
2017-Jun-25 16:58S 33°55' E 018°26'0 0.0
2017-Jun-25 16:28S 33°55' E 018°26'0 0.0
2017-Jun-25 15:58S 33°55' E 018°26'0 0.0
2017-Jun-25 15:28S 33°55' E 018°26'0 0.0
2017-Jun-25 14:58S 33°55' E 018°26'0 0.0
2017-Jun-25 14:28S 33°55' E 018°26'0 0.0
2017-Jun-25 13:28S 33°55' E 018°26'0 0.0
2017-Jun-25 12:58S 33°55' E 018°26'0 0.0
2017-Jun-25 12:28S 33°55' E 018°26'0 0.0
2017-Jun-25 11:58S 33°55' E 018°26'0 0.0
2017-Jun-25 11:28S 33°55' E 018°26'0 0.0
2017-Jun-25 10:58S 33°55' E 018°26'0 0.0
2017-Jun-25 10:28S 33°55' E 018°26'0 0.0
2017-Jun-25 09:58S 33°55' E 018°26'0 0.0
2017-Jun-25 09:25S 33°55' E 018°26'0 0.0
2017-Jun-25 08:55S 33°55' E 018°26'0 0.0
2017-Jun-25 08:31S 33°55' E 018°26'0 0.0
2017-Jun-25 07:58S 33°55' E 018°26'0 0.0
2017-Jun-25 07:31S 33°55' E 018°26'0 0.0
2017-Jun-25 07:00S 33°55' E 018°26'1 2.6
2017-Jun-25 06:30S 33°54' E 018°26'3 5.1
2017-Jun-25 06:00S 33°52' E 018°24'0 0.7
2017-Jun-25 05:30S 33°52' E 018°23'0 0.9
2017-Jun-25 05:00S 33°52' E 018°23'2 4.0
2017-Jun-25 04:30S 33°53' E 018°20'5 9.1
2017-Jun-25 03:59S 33°57' E 018°18'1311.4
2017-Jun-25 02:52S 34°09' E 018°11'1010.9
2017-Jun-25 01:58S 34°19' E 018°11'714.0
2017-Jun-25 01:29S 34°25' E 018°15'  
2017-Jun-19 07:41S 30°46' E 030°49'1813.9
2017-Jun-19 06:24S 30°29' E 030°57'614.9
2017-Jun-19 05:58S 30°23' E 030°59'715.5
2017-Jun-19 05:30S 30°17' E 031°03'815.5
2017-Jun-19 05:00S 30°09' E 031°06'714.7
2017-Jun-19 04:30S 30°02' E 031°08'713.6
2017-Jun-19 04:00S 29°56' E 031°08'611.1
2017-Jun-19 03:30S 29°51' E 031°05'3 5.7
2017-Jun-19 03:00S 29°52' E 031°02'1 3.0
2017-Jun-19 02:30S 29°53' E 031°00'0 0.1
2017-Jun-19 02:00S 29°53' E 031°00'0 0.0
2017-Jun-19 01:30S 29°53' E 031°00'0 0.0
2017-Jun-19 01:00S 29°53' E 031°00'0 0.0
2017-Jun-19 00:30S 29°53' E 031°00'0 0.0
2017-Jun-18 23:57S 29°53' E 031°00'0 0.0
2017-Jun-18 23:27S 29°53' E 031°00'0 0.0
2017-Jun-18 22:57S 29°53' E 031°00'0 0.0
2017-Jun-18 22:30S 29°53' E 031°00'0 0.0
2017-Jun-18 22:00S 29°53' E 031°00'0 0.0
2017-Jun-18 21:30S 29°53' E 031°00'0 0.0
2017-Jun-18 21:00S 29°53' E 031°00'0 0.0
2017-Jun-18 20:30S 29°53' E 031°00'0 0.0
2017-Jun-18 20:00S 29°53' E 031°00'0 0.0
2017-Jun-18 19:30S 29°53' E 031°00'0 0.0
2017-Jun-18 19:00S 29°53' E 031°00'0 0.0
2017-Jun-18 18:27S 29°53' E 031°00'0 0.0
2017-Jun-18 18:00S 29°53' E 031°00'0 0.0
2017-Jun-18 17:30S 29°53' E 031°00'0 0.0
2017-Jun-18 17:00S 29°53' E 031°00'0 0.0
2017-Jun-18 16:30S 29°53' E 031°00'0 0.0
2017-Jun-18 16:00S 29°53' E 031°00'0 0.0
2017-Jun-18 15:27S 29°53' E 031°00'0 0.0
2017-Jun-18 15:00S 29°53' E 031°00'0 0.0
2017-Jun-18 14:00S 29°53' E 031°00'0 0.0
2017-Jun-18 13:27S 29°53' E 031°00'0 0.0
2017-Jun-18 12:57S 29°53' E 031°00'0 0.0
2017-Jun-18 12:27S 29°53' E 031°00'0 0.0
2017-Jun-18 12:00S 29°53' E 031°00'0 0.0
2017-Jun-18 11:30S 29°53' E 031°00'0 0.0
2017-Jun-18 10:39S 29°53' E 031°00'0 0.0
2017-Jun-18 10:30S 29°53' E 031°00'0 0.0
2017-Jun-18 10:00S 29°53' E 031°00'0 0.0
2017-Jun-18 09:30S 29°53' E 031°00'0 0.0
2017-Jun-18 09:00S 29°53' E 031°00'0 0.0
2017-Jun-18 08:30S 29°53' E 031°00'0 0.0
2017-Jun-18 08:00S 29°53' E 031°00'0 0.0
2017-Jun-18 07:30S 29°53' E 031°00'0 0.0
2017-Jun-18 07:00S 29°53' E 031°00'0 0.0
2017-Jun-18 06:30S 29°53' E 031°00'0 0.0
2017-Jun-18 06:00S 29°53' E 031°00'0 0.0
2017-Jun-18 05:30S 29°53' E 031°00'0 0.0
2017-Jun-18 05:00S 29°53' E 031°00'0 0.0
2017-Jun-18 04:30S 29°53' E 031°00'0 0.0
2017-Jun-18 04:00S 29°53' E 031°00'0 0.0
2017-Jun-18 03:27S 29°53' E 031°00'0 0.0
2017-Jun-18 03:00S 29°53' E 031°00'0 0.0
2017-Jun-18 02:30S 29°53' E 031°00'0 0.0
2017-Jun-18 02:00S 29°53' E 031°00'0 0.0
2017-Jun-18 01:30S 29°53' E 031°00'0 0.0
2017-Jun-18 01:00S 29°53' E 031°00'0 0.0
2017-Jun-18 00:27S 29°53' E 031°00'0 0.0
2017-Jun-18 00:00S 29°53' E 031°00'0 0.0
2017-Jun-17 23:30S 29°53' E 031°00'0 0.0
2017-Jun-17 23:00S 29°53' E 031°00'0 0.0
2017-Jun-17 22:30S 29°53' E 031°00'0 0.0
2017-Jun-17 22:00S 29°53' E 031°00'0 0.0
2017-Jun-17 21:30S 29°53' E 031°00'0 0.0
2017-Jun-17 21:00S 29°53' E 031°00'0 0.0
2017-Jun-17 20:30S 29°53' E 031°00'0 0.0
2017-Jun-17 20:00S 29°53' E 031°00'0 0.0
2017-Jun-17 19:30S 29°53' E 031°00'0 0.0
2017-Jun-17 19:00S 29°53' E 031°00'0 0.0
2017-Jun-17 18:30S 29°53' E 031°00'0 0.0
2017-Jun-17 18:00S 29°53' E 031°00'0 0.0
2017-Jun-17 17:30S 29°53' E 031°00'0 0.0
2017-Jun-17 16:57S 29°53' E 031°00'0 0.0
2017-Jun-17 16:30S 29°53' E 031°00'0 0.0
2017-Jun-17 15:59S 29°53' E 031°00'0 0.0
2017-Jun-17 15:30S 29°53' E 031°00'0 0.0
2017-Jun-17 15:00S 29°53' E 031°00'0 0.0
2017-Jun-17 14:00S 29°53' E 031°00'0 0.0
2017-Jun-17 13:29S 29°53' E 031°00'0 0.0
2017-Jun-17 13:00S 29°53' E 031°00'0 0.0
2017-Jun-17 12:30S 29°53' E 031°00'0 0.0
2017-Jun-17 12:00S 29°53' E 031°00'0 0.0
2017-Jun-17 11:30S 29°53' E 031°00'0 0.0
2017-Jun-17 11:00S 29°53' E 031°00'0 0.0
2017-Jun-17 06:27S 29°53' E 031°00'0 0.0
2017-Jun-17 06:00S 29°53' E 031°00'0 0.0
2017-Jun-17 05:30S 29°53' E 031°00'0 0.0
2017-Jun-17 05:00S 29°53' E 031°00'0 0.0
2017-Jun-17 04:30S 29°53' E 031°00'0 0.0
2017-Jun-17 03:59S 29°53' E 031°00'0 0.0
2017-Jun-17 03:30S 29°53' E 031°00'0 0.0
2017-Jun-17 03:00S 29°53' E 031°00'0 0.0
2017-Jun-17 02:30S 29°53' E 031°00'0 0.0
2017-Jun-17 01:59S 29°53' E 031°00'0 0.0
2017-Jun-17 01:27S 29°53' E 031°00'0 0.0
2017-Jun-17 01:00S 29°53' E 031°00'0 0.0
2017-Jun-17 00:30S 29°53' E 031°00'0 0.0
2017-Jun-17 00:00S 29°53' E 031°00'0 0.0
2017-Jun-16 23:29S 29°53' E 031°00'0 0.0
2017-Jun-16 22:59S 29°53' E 031°00'0 0.0
2017-Jun-16 22:30S 29°53' E 031°00'0 0.0
2017-Jun-16 21:54S 29°53' E 031°00'0 0.0
2017-Jun-16 21:29S 29°53' E 031°00'0 0.0
2017-Jun-16 20:59S 29°53' E 031°00'0 0.0
2017-Jun-16 20:29S 29°53' E 031°00'0 0.0
2017-Jun-16 19:59S 29°53' E 031°00'0 0.0
2017-Jun-16 19:29S 29°53' E 031°00'0 0.0
2017-Jun-16 18:59S 29°53' E 031°00'0 0.0
2017-Jun-16 18:29S 29°53' E 031°00'0 0.0
2017-Jun-16 17:57S 29°53' E 031°00'0 0.0
2017-Jun-16 17:29S 29°53' E 031°00'0 0.0
2017-Jun-16 16:59S 29°53' E 031°00'0 0.0
2017-Jun-16 16:29S 29°53' E 031°00'0 0.0
2017-Jun-16 15:59S 29°53' E 031°00'0 0.0
2017-Jun-16 15:29S 29°53' E 031°00'0 0.0
2017-Jun-16 15:00S 29°53' E 031°00'0 0.0
2017-Jun-16 14:29S 29°53' E 031°00'0 0.0
2017-Jun-16 13:29S 29°53' E 031°00'  
Track history (hours):
 
Tides and Currents Weather Stations Pressure Air Temp Water Temp Dewpoint Dewpoint Depression Visibility Wind Speed Wind Dir Waves Ship Positions

African Loon

Last reported at 2017-Jun-26 13:28 UTC. Time now 2017-Jun-26 14:02 UTC.
Position S 33°55' E 018°26'.

Length 200 m; draft 8.9 m.

Type: Cargo ship. MMSI: 374319000.

Date/timePositionNaut miles runAvg speedWind from/ knotsBaromVisibWave heightAir tempDewpointWater temp
2017-Jun-26 13:28S 33°55' E 018°26'0 0.0
2017-Jun-26 12:55S 33°55' E 018°26'0 0.0
2017-Jun-26 12:25S 33°55' E 018°26'0 0.0
2017-Jun-26 11:58S 33°55' E 018°26'0 0.0
2017-Jun-26 11:25S 33°55' E 018°26'0 0.0
2017-Jun-26 10:58S 33°55' E 018°26'0 0.0
2017-Jun-26 10:28S 33°55' E 018°26'0 0.0
2017-Jun-26 09:58S 33°55' E 018°26'0 0.0
2017-Jun-26 09:25S 33°55' E 018°26'0 0.0
2017-Jun-26 08:58S 33°55' E 018°26'0 0.0
2017-Jun-26 08:28S 33°55' E 018°26'0 0.0
2017-Jun-26 07:58S 33°55' E 018°26'0 0.0
2017-Jun-26 07:25S 33°55' E 018°26'0 0.0
2017-Jun-26 06:58S 33°55' E 018°26'0 0.0
2017-Jun-26 06:28S 33°55' E 018°26'0 0.0
2017-Jun-26 05:58S 33°55' E 018°26'0 0.0
2017-Jun-26 05:28S 33°55' E 018°26'0 0.0
2017-Jun-26 04:58S 33°55' E 018°26'0 0.0
2017-Jun-26 04:25S 33°55' E 018°26'0 0.0
2017-Jun-26 03:58S 33°55' E 018°26'0 0.0
2017-Jun-26 03:28S 33°55' E 018°26'0 0.0
2017-Jun-26 02:58S 33°55' E 018°26'0 0.0
2017-Jun-26 02:28S 33°55' E 018°26'0 0.0
2017-Jun-26 01:58S 33°55' E 018°26'0 0.0
2017-Jun-26 01:28S 33°55' E 018°26'0 0.0
2017-Jun-26 00:58S 33°55' E 018°26'0 0.0
2017-Jun-26 00:28S 33°55' E 018°26'0 0.0
2017-Jun-25 23:58S 33°55' E 018°26'0 0.0
2017-Jun-25 23:25S 33°55' E 018°26'0 0.0
2017-Jun-25 22:58S 33°55' E 018°26'0 0.0
2017-Jun-25 22:25S 33°55' E 018°26'0 0.0
2017-Jun-25 21:58S 33°55' E 018°26'0 0.0
2017-Jun-25 21:28S 33°55' E 018°26'0 0.0
2017-Jun-25 20:58S 33°55' E 018°26'0 0.0
2017-Jun-25 20:28S 33°55' E 018°26'0 0.0
2017-Jun-25 19:58S 33°55' E 018°26'0 0.0
2017-Jun-25 19:31S 33°55' E 018°26'0 0.0
2017-Jun-25 18:58S 33°55' E 018°26'0 0.0
2017-Jun-25 18:28S 33°55' E 018°26'0 0.0
2017-Jun-25 17:58S 33°55' E 018°26'0 0.0
2017-Jun-25 17:28S 33°55' E 018°26'0 0.0
2017-Jun-25 16:58S 33°55' E 018°26'0 0.0
2017-Jun-25 16:28S 33°55' E 018°26'0 0.0
2017-Jun-25 15:58S 33°55' E 018°26'0 0.0
2017-Jun-25 15:28S 33°55' E 018°26'0 0.0
2017-Jun-25 14:58S 33°55' E 018°26'0 0.0
2017-Jun-25 14:28S 33°55' E 018°26'0 0.0
2017-Jun-25 13:28S 33°55' E 018°26'0 0.0
2017-Jun-25 12:58S 33°55' E 018°26'0 0.0
2017-Jun-25 12:28S 33°55' E 018°26'0 0.0
2017-Jun-25 11:58S 33°55' E 018°26'0 0.0
2017-Jun-25 11:28S 33°55' E 018°26'0 0.0
2017-Jun-25 10:58S 33°55' E 018°26'0 0.0
2017-Jun-25 10:28S 33°55' E 018°26'0 0.0
2017-Jun-25 09:58S 33°55' E 018°26'0 0.0
2017-Jun-25 09:25S 33°55' E 018°26'0 0.0
2017-Jun-25 08:55S 33°55' E 018°26'0 0.0
2017-Jun-25 08:31S 33°55' E 018°26'0 0.0
2017-Jun-25 07:58S 33°55' E 018°26'0 0.0
2017-Jun-25 07:31S 33°55' E 018°26'0 0.0
2017-Jun-25 07:00S 33°55' E 018°26'1 2.6
2017-Jun-25 06:30S 33°54' E 018°26'3 5.1
2017-Jun-25 06:00S 33°52' E 018°24'0 0.7
2017-Jun-25 05:30S 33°52' E 018°23'0 0.9
2017-Jun-25 05:00S 33°52' E 018°23'2 4.0
2017-Jun-25 04:30S 33°53' E 018°20'5 9.1
2017-Jun-25 03:59S 33°57' E 018°18'1311.4
2017-Jun-25 02:52S 34°09' E 018°11'1010.9
2017-Jun-25 01:58S 34°19' E 018°11'714.0
2017-Jun-25 01:29S 34°25' E 018°15'  
2017-Jun-19 07:41S 30°46' E 030°49'1813.9
2017-Jun-19 06:24S 30°29' E 030°57'614.9
2017-Jun-19 05:58S 30°23' E 030°59'715.5
2017-Jun-19 05:30S 30°17' E 031°03'815.5
2017-Jun-19 05:00S 30°09' E 031°06'714.7
2017-Jun-19 04:30S 30°02' E 031°08'713.6
2017-Jun-19 04:00S 29°56' E 031°08'611.1
2017-Jun-19 03:30S 29°51' E 031°05'3 5.7
2017-Jun-19 03:00S 29°52' E 031°02'1 3.0
2017-Jun-19 02:30S 29°53' E 031°00'0 0.1
2017-Jun-19 02:00S 29°53' E 031°00'0 0.0
2017-Jun-19 01:30S 29°53' E 031°00'0 0.0
2017-Jun-19 01:00S 29°53' E 031°00'0 0.0
2017-Jun-19 00:30S 29°53' E 031°00'0 0.0
2017-Jun-18 23:57S 29°53' E 031°00'0 0.0
2017-Jun-18 23:27S 29°53' E 031°00'0 0.0
2017-Jun-18 22:57S 29°53' E 031°00'0 0.0
2017-Jun-18 22:30S 29°53' E 031°00'0 0.0
2017-Jun-18 22:00S 29°53' E 031°00'0 0.0
2017-Jun-18 21:30S 29°53' E 031°00'0 0.0
2017-Jun-18 21:00S 29°53' E 031°00'0 0.0
2017-Jun-18 20:30S 29°53' E 031°00'0 0.0
2017-Jun-18 20:00S 29°53' E 031°00'0 0.0
2017-Jun-18 19:30S 29°53' E 031°00'0 0.0
2017-Jun-18 19:00S 29°53' E 031°00'0 0.0
2017-Jun-18 18:27S 29°53' E 031°00'0 0.0
2017-Jun-18 18:00S 29°53' E 031°00'0 0.0
2017-Jun-18 17:30S 29°53' E 031°00'0 0.0
2017-Jun-18 17:00S 29°53' E 031°00'0 0.0
2017-Jun-18 16:30S 29°53' E 031°00'0 0.0
2017-Jun-18 16:00S 29°53' E 031°00'0 0.0
2017-Jun-18 15:27S 29°53' E 031°00'0 0.0
2017-Jun-18 15:00S 29°53' E 031°00'0 0.0
2017-Jun-18 14:00S 29°53' E 031°00'0 0.0
2017-Jun-18 13:27S 29°53' E 031°00'0 0.0
2017-Jun-18 12:57S 29°53' E 031°00'0 0.0
2017-Jun-18 12:27S 29°53' E 031°00'0 0.0
2017-Jun-18 12:00S 29°53' E 031°00'0 0.0
2017-Jun-18 11:30S 29°53' E 031°00'0 0.0
2017-Jun-18 10:39S 29°53' E 031°00'0 0.0
2017-Jun-18 10:30S 29°53' E 031°00'0 0.0
2017-Jun-18 10:00S 29°53' E 031°00'0 0.0
2017-Jun-18 09:30S 29°53' E 031°00'0 0.0
2017-Jun-18 09:00S 29°53' E 031°00'0 0.0
2017-Jun-18 08:30S 29°53' E 031°00'0 0.0
2017-Jun-18 08:00S 29°53' E 031°00'0 0.0
2017-Jun-18 07:30S 29°53' E 031°00'0 0.0
2017-Jun-18 07:00S 29°53' E 031°00'0 0.0
2017-Jun-18 06:30S 29°53' E 031°00'0 0.0
2017-Jun-18 06:00S 29°53' E 031°00'0 0.0
2017-Jun-18 05:30S 29°53' E 031°00'0 0.0
2017-Jun-18 05:00S 29°53' E 031°00'0 0.0
2017-Jun-18 04:30S 29°53' E 031°00'0 0.0
2017-Jun-18 04:00S 29°53' E 031°00'0 0.0
2017-Jun-18 03:27S 29°53' E 031°00'0 0.0
2017-Jun-18 03:00S 29°53' E 031°00'0 0.0
2017-Jun-18 02:30S 29°53' E 031°00'0 0.0
2017-Jun-18 02:00S 29°53' E 031°00'0 0.0
2017-Jun-18 01:30S 29°53' E 031°00'0 0.0
2017-Jun-18 01:00S 29°53' E 031°00'0 0.0
2017-Jun-18 00:27S 29°53' E 031°00'0 0.0
2017-Jun-18 00:00S 29°53' E 031°00'0 0.0
2017-Jun-17 23:30S 29°53' E 031°00'0 0.0
2017-Jun-17 23:00S 29°53' E 031°00'0 0.0
2017-Jun-17 22:30S 29°53' E 031°00'0 0.0
2017-Jun-17 22:00S 29°53' E 031°00'0 0.0
2017-Jun-17 21:30S 29°53' E 031°00'0 0.0
2017-Jun-17 21:00S 29°53' E 031°00'0 0.0
2017-Jun-17 20:30S 29°53' E 031°00'0 0.0
2017-Jun-17 20:00S 29°53' E 031°00'0 0.0
2017-Jun-17 19:30S 29°53' E 031°00'0 0.0
2017-Jun-17 19:00S 29°53' E 031°00'0 0.0
2017-Jun-17 18:30S 29°53' E 031°00'0 0.0
2017-Jun-17 18:00S 29°53' E 031°00'0 0.0
2017-Jun-17 17:30S 29°53' E 031°00'0 0.0
2017-Jun-17 16:57S 29°53' E 031°00'0 0.0
2017-Jun-17 16:30S 29°53' E 031°00'0 0.0
2017-Jun-17 15:59S 29°53' E 031°00'0 0.0
2017-Jun-17 15:30S 29°53' E 031°00'0 0.0
2017-Jun-17 15:00S 29°53' E 031°00'0 0.0
2017-Jun-17 14:00S 29°53' E 031°00'0 0.0
2017-Jun-17 13:29S 29°53' E 031°00'0 0.0
2017-Jun-17 13:00S 29°53' E 031°00'0 0.0
2017-Jun-17 12:30S 29°53' E 031°00'0 0.0
2017-Jun-17 12:00S 29°53' E 031°00'0 0.0
2017-Jun-17 11:30S 29°53' E 031°00'0 0.0
2017-Jun-17 11:00S 29°53' E 031°00'0 0.0
2017-Jun-17 06:27S 29°53' E 031°00'0 0.0
2017-Jun-17 06:00S 29°53' E 031°00'0 0.0
2017-Jun-17 05:30S 29°53' E 031°00'0 0.0
2017-Jun-17 05:00S 29°53' E 031°00'0 0.0
2017-Jun-17 04:30S 29°53' E 031°00'0 0.0
2017-Jun-17 03:59S 29°53' E 031°00'0 0.0
2017-Jun-17 03:30S 29°53' E 031°00'0 0.0
2017-Jun-17 03:00S 29°53' E 031°00'0 0.0
2017-Jun-17 02:30S 29°53' E 031°00'0 0.0
2017-Jun-17 01:59S 29°53' E 031°00'0 0.0
2017-Jun-17 01:27S 29°53' E 031°00'0 0.0
2017-Jun-17 01:00S 29°53' E 031°00'0 0.0
2017-Jun-17 00:30S 29°53' E 031°00'0 0.0
2017-Jun-17 00:00S 29°53' E 031°00'0 0.0
2017-Jun-16 23:29S 29°53' E 031°00'0 0.0
2017-Jun-16 22:59S 29°53' E 031°00'0 0.0
2017-Jun-16 22:30S 29°53' E 031°00'0 0.0
2017-Jun-16 21:54S 29°53' E 031°00'0 0.0
2017-Jun-16 21:29S 29°53' E 031°00'0 0.0
2017-Jun-16 20:59S 29°53' E 031°00'0 0.0
2017-Jun-16 20:29S 29°53' E 031°00'0 0.0
2017-Jun-16 19:59S 29°53' E 031°00'0 0.0
2017-Jun-16 19:29S 29°53' E 031°00'0 0.0
2017-Jun-16 18:59S 29°53' E 031°00'0 0.0
2017-Jun-16 18:29S 29°53' E 031°00'0 0.0
2017-Jun-16 17:57S 29°53' E 031°00'0 0.0
2017-Jun-16 17:29S 29°53' E 031°00'0 0.0
2017-Jun-16 16:59S 29°53' E 031°00'0 0.0
2017-Jun-16 16:29S 29°53' E 031°00'0 0.0
2017-Jun-16 15:59S 29°53' E 031°00'0 0.0
2017-Jun-16 15:29S 29°53' E 031°00'0 0.0
2017-Jun-16 15:00S 29°53' E 031°00'0 0.0
2017-Jun-16 14:29S 29°53' E 031°00'0 0.0
2017-Jun-16 13:29S 29°53' E 031°00'  

Dump ship's entire track history